Duco, Kentucky
Current Conditions -  °F | °C
As of 10:53 PM on Wednesday 28 Jan 2015 (Local Time) from KJKL Reporting Station
Clear Clear  
Wind Chill: 30°   Ceiling: Unl
Heat Index: 30°   Visibility: 10mi
Dew Point: 18°   Wind: 3mph
Humidity: 61%   Direction: 130°SE
Pressure: 30.2"   Gusts: NA
Location:  37.7261°N, 83.0786°W
Report Text: KJKL 290353Z AUTO 13003KT 10SM CLR M01/M08 A3020 RMK AO2 SLP239 T10111078
Loading
Personal Weather Stations






























Interactive Weather Map New forecast layout! Learn more

10-Day Weather Forecast

Advertisements
Track Severe Weather on mobile